sensor_id;sensor_type;location;lat;lon;timestamp;P1;durP1;ratioP1;P2;durP2;ratioP2
29958;SDS011;16815;51.100;6.516;2023-03-14T00:01:45;9.00;;;2.30;;
29958;SDS011;16815;51.100;6.516;2023-03-14T00:04:12;8.50;;;2.77;;
29958;SDS011;16815;51.100;6.516;2023-03-14T00:06:38;9.37;;;2.37;;
29958;SDS011;16815;51.100;6.516;2023-03-14T00:09:07;9.90;;;2.40;;
29958;SDS011;16815;51.100;6.516;2023-03-14T00:11:35;10.43;;;2.37;;
29958;SDS011;16815;51.100;6.516;2023-03-14T00:14:03;8.60;;;2.13;;
29958;SDS011;16815;51.100;6.516;2023-03-14T00:16:28;9.23;;;2.70;;
29958;SDS011;16815;51.100;6.516;2023-03-14T00:18:54;8.80;;;2.33;;
29958;SDS011;16815;51.100;6.516;2023-03-14T00:21:20;8.70;;;3.13;;
29958;SDS011;16815;51.100;6.516;2023-03-14T00:23:46;4.87;;;2.03;;
29958;SDS011;16815;51.100;6.516;2023-03-14T00:26:14;5.83;;;2.13;;
29958;SDS011;16815;51.100;6.516;2023-03-14T00:28:40;5.20;;;1.80;;
29958;SDS011;16815;51.100;6.516;2023-03-14T00:31:07;3.83;;;1.90;;
29958;SDS011;16815;51.100;6.516;2023-03-14T00:33:33;5.10;;;1.80;;
29958;SDS011;16815;51.100;6.516;2023-03-14T00:36:00;6.93;;;1.73;;
29958;SDS011;16815;51.100;6.516;2023-03-14T00:38:27;4.00;;;1.70;;
29958;SDS011;16815;51.100;6.516;2023-03-14T00:40:53;3.97;;;1.10;;
29958;SDS011;16815;51.100;6.516;2023-03-14T00:43:19;2.57;;;1.30;;
29958;SDS011;16815;51.100;6.516;2023-03-14T00:45:52;5.10;;;1.47;;
29958;SDS011;16815;51.100;6.516;2023-03-14T00:48:19;2.67;;;1.27;;
29958;SDS011;16815;51.100;6.516;2023-03-14T00:50:45;3.30;;;1.73;;
29958;SDS011;16815;51.100;6.516;2023-03-14T00:53:12;4.77;;;1.40;;
29958;SDS011;16815;51.100;6.516;2023-03-14T00:55:38;2.27;;;1.40;;
29958;SDS011;16815;51.100;6.516;2023-03-14T00:58:05;4.20;;;1.37;;
29958;SDS011;16815;51.100;6.516;2023-03-14T01:00:31;4.90;;;1.97;;
29958;SDS011;16815;51.100;6.516;2023-03-14T01:02:57;6.83;;;1.90;;
29958;SDS011;16815;51.100;6.516;2023-03-14T01:05:23;4.00;;;1.40;;
29958;SDS011;16815;51.100;6.516;2023-03-14T01:07:49;6.40;;;1.87;;
29958;SDS011;16815;51.100;6.516;2023-03-14T01:10:15;6.40;;;1.50;;
29958;SDS011;16815;51.100;6.516;2023-03-14T01:12:41;6.40;;;1.80;;
29958;SDS011;16815;51.100;6.516;2023-03-14T01:15:07;6.67;;;1.90;;
29958;SDS011;16815;51.100;6.516;2023-03-14T01:17:34;5.30;;;1.93;;
29958;SDS011;16815;51.100;6.516;2023-03-14T01:20:00;8.07;;;2.20;;
29958;SDS011;16815;51.100;6.516;2023-03-14T01:22:26;6.47;;;2.10;;
29958;SDS011;16815;51.100;6.516;2023-03-14T01:24:52;4.07;;;1.70;;
29958;SDS011;16815;51.100;6.516;2023-03-14T01:27:18;5.87;;;2.07;;
29958;SDS011;16815;51.100;6.516;2023-03-14T01:29:44;5.83;;;2.47;;
29958;SDS011;16815;51.100;6.516;2023-03-14T01:32:12;6.73;;;2.07;;
29958;SDS011;16815;51.100;6.516;2023-03-14T01:34:38;5.80;;;2.17;;
29958;SDS011;16815;51.100;6.516;2023-03-14T01:37:03;3.67;;;1.90;;
29958;SDS011;16815;51.100;6.516;2023-03-14T01:39:30;5.80;;;2.00;;
29958;SDS011;16815;51.100;6.516;2023-03-14T01:41:56;4.67;;;1.87;;
29958;SDS011;16815;51.100;6.516;2023-03-14T01:44:22;5.43;;;2.17;;
29958;SDS011;16815;51.100;6.516;2023-03-14T01:46:48;7.03;;;1.83;;
29958;SDS011;16815;51.100;6.516;2023-03-14T01:49:19;6.70;;;2.13;;
29958;SDS011;16815;51.100;6.516;2023-03-14T01:57:19;7.97;;;1.83;;
29958;SDS011;16815;51.100;6.516;2023-03-14T01:59:52;6.70;;;2.20;;
29958;SDS011;16815;51.100;6.516;2023-03-14T02:02:20;6.03;;;1.60;;
29958;SDS011;16815;51.100;6.516;2023-03-14T02:04:46;6.57;;;2.20;;
29958;SDS011;16815;51.100;6.516;2023-03-14T02:07:15;4.73;;;1.87;;
29958;SDS011;16815;51.100;6.516;2023-03-14T02:09:41;3.83;;;1.63;;
29958;SDS011;16815;51.100;6.516;2023-03-14T02:12:08;4.17;;;1.80;;
29958;SDS011;16815;51.100;6.516;2023-03-14T02:14:35;5.40;;;1.57;;
29958;SDS011;16815;51.100;6.516;2023-03-14T02:17:02;7.43;;;2.17;;
29958;SDS011;16815;51.100;6.516;2023-03-14T02:19:36;5.53;;;1.80;;
29958;SDS011;16815;51.100;6.516;2023-03-14T02:22:10;10.73;;;2.20;;
29958;SDS011;16815;51.100;6.516;2023-03-14T02:24:46;7.00;;;2.33;;
29958;SDS011;16815;51.100;6.516;2023-03-14T02:27:16;5.87;;;1.60;;
29958;SDS011;16815;51.100;6.516;2023-03-14T02:29:52;7.70;;;2.20;;
29958;SDS011;16815;51.100;6.516;2023-03-14T02:32:20;7.67;;;2.50;;
29958;SDS011;16815;51.100;6.516;2023-03-14T02:34:48;3.70;;;1.60;;
29958;SDS011;16815;51.100;6.516;2023-03-14T02:37:15;5.23;;;2.10;;
29958;SDS011;16815;51.100;6.516;2023-03-14T02:39:43;7.63;;;1.80;;
29958;SDS011;16815;51.100;6.516;2023-03-14T02:42:10;6.73;;;2.10;;
29958;SDS011;16815;51.100;6.516;2023-03-14T02:44:35;8.70;;;2.00;;
29958;SDS011;16815;51.100;6.516;2023-03-14T02:47:02;9.03;;;1.90;;
29958;SDS011;16815;51.100;6.516;2023-03-14T02:49:28;6.77;;;2.33;;
29958;SDS011;16815;51.100;6.516;2023-03-14T02:51:55;7.77;;;1.73;;
29958;SDS011;16815;51.100;6.516;2023-03-14T02:54:21;4.83;;;1.90;;
29958;SDS011;16815;51.100;6.516;2023-03-14T02:56:47;8.33;;;2.00;;
29958;SDS011;16815;51.100;6.516;2023-03-14T02:59:13;6.63;;;2.33;;
29958;SDS011;16815;51.100;6.516;2023-03-14T03:01:39;7.60;;;3.07;;
29958;SDS011;16815;51.100;6.516;2023-03-14T03:04:05;5.83;;;2.40;;
29958;SDS011;16815;51.100;6.516;2023-03-14T03:06:31;6.70;;;2.53;;
29958;SDS011;16815;51.100;6.516;2023-03-14T03:08:57;6.80;;;2.23;;
29958;SDS011;16815;51.100;6.516;2023-03-14T03:11:23;6.63;;;2.53;;
29958;SDS011;16815;51.100;6.516;2023-03-14T03:13:49;10.03;;;2.70;;
29958;SDS011;16815;51.100;6.516;2023-03-14T03:16:15;8.07;;;2.40;;
29958;SDS011;16815;51.100;6.516;2023-03-14T03:18:41;10.37;;;2.37;;
29958;SDS011;16815;51.100;6.516;2023-03-14T03:21:06;11.60;;;2.93;;
29958;SDS011;16815;51.100;6.516;2023-03-14T03:23:34;8.87;;;2.93;;
29958;SDS011;16815;51.100;6.516;2023-03-14T03:26:00;8.87;;;2.43;;
29958;SDS011;16815;51.100;6.516;2023-03-14T03:28:27;12.80;;;2.90;;
29958;SDS011;16815;51.100;6.516;2023-03-14T03:30:53;10.53;;;2.70;;
29958;SDS011;16815;51.100;6.516;2023-03-14T03:33:19;8.77;;;2.50;;
29958;SDS011;16815;51.100;6.516;2023-03-14T03:35:47;6.77;;;2.57;;
29958;SDS011;16815;51.100;6.516;2023-03-14T03:38:13;5.93;;;2.63;;
29958;SDS011;16815;51.100;6.516;2023-03-14T03:40:39;9.10;;;3.23;;
29958;SDS011;16815;51.100;6.516;2023-03-14T03:43:05;10.23;;;2.77;;
29958;SDS011;16815;51.100;6.516;2023-03-14T03:45:31;8.07;;;2.50;;
29958;SDS011;16815;51.100;6.516;2023-03-14T03:47:57;9.63;;;3.20;;
29958;SDS011;16815;51.100;6.516;2023-03-14T03:50:23;9.50;;;2.43;;
29958;SDS011;16815;51.100;6.516;2023-03-14T03:52:49;8.47;;;2.67;;
29958;SDS011;16815;51.100;6.516;2023-03-14T03:55:15;9.53;;;2.10;;
29958;SDS011;16815;51.100;6.516;2023-03-14T03:57:41;7.83;;;3.00;;
29958;SDS011;16815;51.100;6.516;2023-03-14T04:00:09;8.03;;;2.30;;
29958;SDS011;16815;51.100;6.516;2023-03-14T04:02:37;7.97;;;2.40;;
29958;SDS011;16815;51.100;6.516;2023-03-14T04:05:03;4.90;;;1.90;;
29958;SDS011;16815;51.100;6.516;2023-03-14T04:07:31;7.90;;;2.40;;
29958;SDS011;16815;51.100;6.516;2023-03-14T04:09:57;11.30;;;2.13;;
29958;SDS011;16815;51.100;6.516;2023-03-14T04:12:23;6.60;;;2.17;;
29958;SDS011;16815;51.100;6.516;2023-03-14T04:14:49;8.63;;;2.00;;
29958;SDS011;16815;51.100;6.516;2023-03-14T04:17:15;4.77;;;2.00;;
29958;SDS011;16815;51.100;6.516;2023-03-14T04:19:40;5.63;;;1.93;;
29958;SDS011;16815;51.100;6.516;2023-03-14T04:22:07;2.70;;;1.50;;
29958;SDS011;16815;51.100;6.516;2023-03-14T04:24:33;2.70;;;1.83;;
29958;SDS011;16815;51.100;6.516;2023-03-14T04:26:59;2.97;;;1.40;;
29958;SDS011;16815;51.100;6.516;2023-03-14T04:29:25;5.27;;;1.50;;
29958;SDS011;16815;51.100;6.516;2023-03-14T04:31:51;4.87;;;1.20;;
29958;SDS011;16815;51.100;6.516;2023-03-14T04:34:16;3.43;;;1.50;;
29958;SDS011;16815;51.100;6.516;2023-03-14T04:36:42;2.37;;;1.27;;
29958;SDS011;16815;51.100;6.516;2023-03-14T04:39:08;2.10;;;1.23;;
29958;SDS011;16815;51.100;6.516;2023-03-14T04:41:34;2.10;;;1.20;;
29958;SDS011;16815;51.100;6.516;2023-03-14T04:44:03;1.70;;;1.20;;
29958;SDS011;16815;51.100;6.516;2023-03-14T04:46:29;3.23;;;1.50;;
29958;SDS011;16815;51.100;6.516;2023-03-14T04:48:55;1.20;;;1.10;;
29958;SDS011;16815;51.100;6.516;2023-03-14T04:51:21;1.50;;;1.20;;
29958;SDS011;16815;51.100;6.516;2023-03-14T04:53:48;2.03;;;1.00;;
29958;SDS011;16815;51.100;6.516;2023-03-14T04:56:14;3.20;;;1.20;;
29958;SDS011;16815;51.100;6.516;2023-03-14T04:58:40;1.70;;;1.10;;
29958;SDS011;16815;51.100;6.516;2023-03-14T05:01:06;1.10;;;0.90;;
29958;SDS011;16815;51.100;6.516;2023-03-14T05:03:32;1.00;;;0.80;;
29958;SDS011;16815;51.100;6.516;2023-03-14T05:06:00;1.60;;;0.90;;
29958;SDS011;16815;51.100;6.516;2023-03-14T05:08:26;1.43;;;1.00;;
29958;SDS011;16815;51.100;6.516;2023-03-14T05:10:53;1.23;;;1.00;;
29958;SDS011;16815;51.100;6.516;2023-03-14T05:13:19;2.23;;;0.77;;
29958;SDS011;16815;51.100;6.516;2023-03-14T05:15:45;0.97;;;0.87;;
29958;SDS011;16815;51.100;6.516;2023-03-14T05:18:11;4.03;;;0.93;;
29958;SDS011;16815;51.100;6.516;2023-03-14T05:20:37;1.00;;;0.70;;
29958;SDS011;16815;51.100;6.516;2023-03-14T05:23:03;4.43;;;1.47;;
29958;SDS011;16815;51.100;6.516;2023-03-14T05:25:29;1.67;;;0.93;;
29958;SDS011;16815;51.100;6.516;2023-03-14T05:27:55;3.13;;;1.07;;
29958;SDS011;16815;51.100;6.516;2023-03-14T05:30:21;0.77;;;0.77;;
29958;SDS011;16815;51.100;6.516;2023-03-14T05:32:47;3.30;;;0.80;;
29958;SDS011;16815;51.100;6.516;2023-03-14T05:35:13;1.60;;;0.90;;
29958;SDS011;16815;51.100;6.516;2023-03-14T05:37:39;2.53;;;0.80;;
29958;SDS011;16815;51.100;6.516;2023-03-14T05:40:06;0.80;;;0.80;;
29958;SDS011;16815;51.100;6.516;2023-03-14T05:42:33;0.80;;;0.70;;
29958;SDS011;16815;51.100;6.516;2023-03-14T05:44:59;0.70;;;0.70;;
29958;SDS011;16815;51.100;6.516;2023-03-14T05:47:25;0.60;;;0.60;;
29958;SDS011;16815;51.100;6.516;2023-03-14T05:49:51;0.60;;;0.60;;
29958;SDS011;16815;51.100;6.516;2023-03-14T05:52:17;0.97;;;0.60;;
29958;SDS011;16815;51.100;6.516;2023-03-14T05:54:43;1.13;;;0.67;;
29958;SDS011;16815;51.100;6.516;2023-03-14T05:57:10;0.80;;;0.80;;
29958;SDS011;16815;51.100;6.516;2023-03-14T05:59:36;0.70;;;0.70;;
29958;SDS011;16815;51.100;6.516;2023-03-14T06:02:02;0.80;;;0.80;;
29958;SDS011;16815;51.100;6.516;2023-03-14T06:04:28;1.33;;;0.70;;
29958;SDS011;16815;51.100;6.516;2023-03-14T06:06:54;1.70;;;0.83;;
29958;SDS011;16815;51.100;6.516;2023-03-14T06:09:20;2.10;;;0.90;;
29958;SDS011;16815;51.100;6.516;2023-03-14T06:11:48;0.83;;;0.70;;
29958;SDS011;16815;51.100;6.516;2023-03-14T06:14:14;0.77;;;0.70;;
29958;SDS011;16815;51.100;6.516;2023-03-14T06:16:40;1.33;;;0.80;;
29958;SDS011;16815;51.100;6.516;2023-03-14T06:19:06;1.03;;;0.70;;
29958;SDS011;16815;51.100;6.516;2023-03-14T06:21:32;1.00;;;0.90;;
29958;SDS011;16815;51.100;6.516;2023-03-14T06:23:57;1.83;;;0.87;;
29958;SDS011;16815;51.100;6.516;2023-03-14T06:26:23;0.60;;;0.60;;
29958;SDS011;16815;51.100;6.516;2023-03-14T06:28:49;1.17;;;0.70;;
29958;SDS011;16815;51.100;6.516;2023-03-14T06:31:16;1.00;;;0.80;;
29958;SDS011;16815;51.100;6.516;2023-03-14T06:33:42;1.30;;;0.70;;
29958;SDS011;16815;51.100;6.516;2023-03-14T06:36:08;1.20;;;0.83;;
29958;SDS011;16815;51.100;6.516;2023-03-14T06:38:34;0.60;;;0.60;;
29958;SDS011;16815;51.100;6.516;2023-03-14T06:41:04;0.70;;;0.70;;
29958;SDS011;16815;51.100;6.516;2023-03-14T06:43:30;1.10;;;0.90;;
29958;SDS011;16815;51.100;6.516;2023-03-14T06:45:56;1.00;;;0.80;;
29958;SDS011;16815;51.100;6.516;2023-03-14T06:48:22;0.90;;;0.73;;
29958;SDS011;16815;51.100;6.516;2023-03-14T06:50:48;0.67;;;0.63;;
29958;SDS011;16815;51.100;6.516;2023-03-14T06:53:14;1.93;;;0.90;;
29958;SDS011;16815;51.100;6.516;2023-03-14T06:55:40;0.73;;;0.70;;
29958;SDS011;16815;51.100;6.516;2023-03-14T06:58:06;0.63;;;0.60;;
29958;SDS011;16815;51.100;6.516;2023-03-14T07:00:33;1.20;;;0.60;;
29958;SDS011;16815;51.100;6.516;2023-03-14T07:02:59;0.50;;;0.50;;
29958;SDS011;16815;51.100;6.516;2023-03-14T07:05:25;1.20;;;0.70;;
29958;SDS011;16815;51.100;6.516;2023-03-14T07:07:51;0.90;;;0.73;;
29958;SDS011;16815;51.100;6.516;2023-03-14T07:10:17;0.80;;;0.80;;
29958;SDS011;16815;51.100;6.516;2023-03-14T07:12:43;0.80;;;0.80;;
29958;SDS011;16815;51.100;6.516;2023-03-14T07:15:09;0.87;;;0.60;;
29958;SDS011;16815;51.100;6.516;2023-03-14T07:17:35;0.67;;;0.67;;
29958;SDS011;16815;51.100;6.516;2023-03-14T07:20:01;0.70;;;0.70;;
29958;SDS011;16815;51.100;6.516;2023-03-14T07:22:29;1.60;;;0.80;;
29958;SDS011;16815;51.100;6.516;2023-03-14T07:24:55;1.30;;;0.70;;
29958;SDS011;16815;51.100;6.516;2023-03-14T07:27:21;0.77;;;0.63;;
29958;SDS011;16815;51.100;6.516;2023-03-14T07:29:46;1.80;;;0.73;;
29958;SDS011;16815;51.100;6.516;2023-03-14T07:32:12;1.60;;;1.10;;
29958;SDS011;16815;51.100;6.516;2023-03-14T07:34:40;0.90;;;0.80;;
29958;SDS011;16815;51.100;6.516;2023-03-14T07:37:06;0.70;;;0.70;;
29958;SDS011;16815;51.100;6.516;2023-03-14T07:39:32;0.60;;;0.60;;
29958;SDS011;16815;51.100;6.516;2023-03-14T07:41:58;0.77;;;0.77;;
29958;SDS011;16815;51.100;6.516;2023-03-14T07:44:24;0.70;;;0.70;;
29958;SDS011;16815;51.100;6.516;2023-03-14T07:46:50;2.63;;;0.80;;
29958;SDS011;16815;51.100;6.516;2023-03-14T07:49:16;1.43;;;0.93;;
29958;SDS011;16815;51.100;6.516;2023-03-14T07:51:42;1.47;;;1.33;;
29958;SDS011;16815;51.100;6.516;2023-03-14T07:54:09;0.90;;;0.90;;
29958;SDS011;16815;51.100;6.516;2023-03-14T07:56:35;2.93;;;0.90;;
29958;SDS011;16815;51.100;6.516;2023-03-14T07:59:01;1.00;;;1.00;;
29958;SDS011;16815;51.100;6.516;2023-03-14T08:01:28;0.90;;;0.90;;
29958;SDS011;16815;51.100;6.516;2023-03-14T08:03:54;0.80;;;0.80;;
29958;SDS011;16815;51.100;6.516;2023-03-14T08:06:20;2.07;;;1.10;;
29958;SDS011;16815;51.100;6.516;2023-03-14T08:08:46;1.13;;;0.77;;
29958;SDS011;16815;51.100;6.516;2023-03-14T08:11:12;0.90;;;0.90;;
29958;SDS011;16815;51.100;6.516;2023-03-14T08:13:43;0.80;;;0.80;;
29958;SDS011;16815;51.100;6.516;2023-03-14T08:16:14;1.13;;;0.80;;
29958;SDS011;16815;51.100;6.516;2023-03-14T08:18:41;1.73;;;0.80;;
29958;SDS011;16815;51.100;6.516;2023-03-14T08:21:07;0.90;;;0.90;;
29958;SDS011;16815;51.100;6.516;2023-03-14T08:23:33;1.13;;;1.03;;
29958;SDS011;16815;51.100;6.516;2023-03-14T08:25:58;1.57;;;1.00;;
29958;SDS011;16815;51.100;6.516;2023-03-14T08:28:24;3.03;;;0.97;;
29958;SDS011;16815;51.100;6.516;2023-03-14T08:30:55;0.90;;;0.90;;
29958;SDS011;16815;51.100;6.516;2023-03-14T08:33:21;2.20;;;1.00;;
29958;SDS011;16815;51.100;6.516;2023-03-14T08:35:47;0.90;;;0.90;;
29958;SDS011;16815;51.100;6.516;2023-03-14T08:38:13;1.27;;;1.23;;
29958;SDS011;16815;51.100;6.516;2023-03-14T08:40:39;1.57;;;1.23;;
29958;SDS011;16815;51.100;6.516;2023-03-14T08:43:05;1.30;;;1.20;;
29958;SDS011;16815;51.100;6.516;2023-03-14T08:45:31;1.90;;;1.30;;
29958;SDS011;16815;51.100;6.516;2023-03-14T08:47:58;2.80;;;1.27;;
29958;SDS011;16815;51.100;6.516;2023-03-14T08:50:24;1.40;;;1.20;;
29958;SDS011;16815;51.100;6.516;2023-03-14T08:52:50;2.97;;;1.40;;
29958;SDS011;16815;51.100;6.516;2023-03-14T08:55:16;2.00;;;1.60;;
29958;SDS011;16815;51.100;6.516;2023-03-14T08:57:41;2.30;;;1.33;;
29958;SDS011;16815;51.100;6.516;2023-03-14T09:00:08;2.20;;;1.57;;
29958;SDS011;16815;51.100;6.516;2023-03-14T09:02:39;0.93;;;0.83;;
29958;SDS011;16815;51.100;6.516;2023-03-14T09:05:05;1.40;;;1.30;;
29958;SDS011;16815;51.100;6.516;2023-03-14T09:07:31;1.40;;;1.30;;
29958;SDS011;16815;51.100;6.516;2023-03-14T09:09:57;2.00;;;1.40;;
29958;SDS011;16815;51.100;6.516;2023-03-14T09:12:32;3.33;;;1.27;;
29958;SDS011;16815;51.100;6.516;2023-03-14T09:14:58;0.97;;;0.90;;
29958;SDS011;16815;51.100;6.516;2023-03-14T09:17:24;0.80;;;0.80;;
29958;SDS011;16815;51.100;6.516;2023-03-14T09:19:50;1.60;;;0.80;;
29958;SDS011;16815;51.100;6.516;2023-03-14T09:22:16;0.80;;;0.80;;
29958;SDS011;16815;51.100;6.516;2023-03-14T09:24:42;1.43;;;1.10;;
29958;SDS011;16815;51.100;6.516;2023-03-14T09:27:07;0.90;;;0.90;;
29958;SDS011;16815;51.100;6.516;2023-03-14T09:29:34;1.23;;;1.13;;
29958;SDS011;16815;51.100;6.516;2023-03-14T09:32:00;1.47;;;1.27;;
29958;SDS011;16815;51.100;6.516;2023-03-14T09:34:26;1.53;;;1.30;;
29958;SDS011;16815;51.100;6.516;2023-03-14T09:36:52;1.40;;;1.30;;
29958;SDS011;16815;51.100;6.516;2023-03-14T09:39:18;1.60;;;1.50;;
29958;SDS011;16815;51.100;6.516;2023-03-14T09:41:44;1.60;;;1.50;;
29958;SDS011;16815;51.100;6.516;2023-03-14T09:46:38;3.23;;;1.67;;
29958;SDS011;16815;51.100;6.516;2023-03-14T09:49:09;1.60;;;1.50;;
29958;SDS011;16815;51.100;6.516;2023-03-14T09:51:35;1.57;;;1.47;;
29958;SDS011;16815;51.100;6.516;2023-03-14T09:54:02;1.40;;;1.40;;
29958;SDS011;16815;51.100;6.516;2023-03-14T09:56:31;1.60;;;1.50;;
29958;SDS011;16815;51.100;6.516;2023-03-14T09:58:58;1.87;;;1.70;;
29958;SDS011;16815;51.100;6.516;2023-03-14T10:01:26;1.90;;;1.73;;
29958;SDS011;16815;51.100;6.516;2023-03-14T10:03:57;2.50;;;2.30;;
29958;SDS011;16815;51.100;6.516;2023-03-14T10:06:26;2.93;;;1.73;;
29958;SDS011;16815;51.100;6.516;2023-03-14T10:08:53;2.27;;;1.60;;
29958;SDS011;16815;51.100;6.516;2023-03-14T10:11:19;1.70;;;1.60;;
29958;SDS011;16815;51.100;6.516;2023-03-14T10:16:14;1.37;;;1.27;;
29958;SDS011;16815;51.100;6.516;2023-03-14T10:18:43;1.50;;;1.40;;
29958;SDS011;16815;51.100;6.516;2023-03-14T10:24:21;1.57;;;1.43;;
29958;SDS011;16815;51.100;6.516;2023-03-14T10:27:22;1.70;;;1.60;;
29958;SDS011;16815;51.100;6.516;2023-03-14T10:29:51;1.47;;;1.40;;
29958;SDS011;16815;51.100;6.516;2023-03-14T10:32:20;1.90;;;1.80;;
29958;SDS011;16815;51.100;6.516;2023-03-14T10:35:03;1.63;;;1.50;;
29958;SDS011;16815;51.100;6.516;2023-03-14T10:37:29;1.60;;;1.50;;
29958;SDS011;16815;51.100;6.516;2023-03-14T10:39:59;1.80;;;1.50;;
29958;SDS011;16815;51.100;6.516;2023-03-14T10:42:31;1.83;;;1.40;;
29958;SDS011;16815;51.100;6.516;2023-03-14T10:45:06;1.47;;;1.37;;
29958;SDS011;16815;51.100;6.516;2023-03-14T10:47:33;1.40;;;1.30;;
29958;SDS011;16815;51.100;6.516;2023-03-14T10:50:19;1.80;;;1.43;;
29958;SDS011;16815;51.100;6.516;2023-03-14T10:52:48;1.50;;;1.40;;
29958;SDS011;16815;51.100;6.516;2023-03-14T10:55:15;1.40;;;1.30;;
29958;SDS011;16815;51.100;6.516;2023-03-14T10:57:42;2.47;;;1.73;;
29958;SDS011;16815;51.100;6.516;2023-03-14T11:00:15;2.00;;;1.80;;
29958;SDS011;16815;51.100;6.516;2023-03-14T11:05:29;3.20;;;2.57;;
29958;SDS011;16815;51.100;6.516;2023-03-14T11:08:00;2.17;;;2.07;;
29958;SDS011;16815;51.100;6.516;2023-03-14T11:10:38;4.80;;;2.10;;
29958;SDS011;16815;51.100;6.516;2023-03-14T11:13:20;1.20;;;1.10;;
29958;SDS011;16815;51.100;6.516;2023-03-14T11:15:57;1.40;;;1.30;;
29958;SDS011;16815;51.100;6.516;2023-03-14T11:20:55;1.90;;;1.57;;
29958;SDS011;16815;51.100;6.516;2023-03-14T11:23:41;1.10;;;1.10;;
29958;SDS011;16815;51.100;6.516;2023-03-14T11:26:19;1.47;;;1.30;;
29958;SDS011;16815;51.100;6.516;2023-03-14T11:28:49;5.77;;;2.13;;
29958;SDS011;16815;51.100;6.516;2023-03-14T11:31:18;2.87;;;1.30;;
29958;SDS011;16815;51.100;6.516;2023-03-14T11:33:50;4.17;;;1.70;;
29958;SDS011;16815;51.100;6.516;2023-03-14T11:36:24;1.50;;;1.40;;
29958;SDS011;16815;51.100;6.516;2023-03-14T11:38:55;4.23;;;1.80;;
29958;SDS011;16815;51.100;6.516;2023-03-14T11:41:29;3.43;;;2.00;;
29958;SDS011;16815;51.100;6.516;2023-03-14T11:43:56;2.40;;;1.70;;
29958;SDS011;16815;51.100;6.516;2023-03-14T11:46:27;4.40;;;1.80;;
29958;SDS011;16815;51.100;6.516;2023-03-14T11:51:41;3.80;;;1.50;;
29958;SDS011;16815;51.100;6.516;2023-03-14T12:02:13;1.97;;;1.57;;
29958;SDS011;16815;51.100;6.516;2023-03-14T12:04:46;3.07;;;1.70;;
29958;SDS011;16815;51.100;6.516;2023-03-14T12:08:02;2.37;;;1.30;;
29958;SDS011;16815;51.100;6.516;2023-03-14T12:10:01;1.20;;;1.10;;
29958;SDS011;16815;51.100;6.516;2023-03-14T12:12:27;2.53;;;1.20;;
29958;SDS011;16815;51.100;6.516;2023-03-14T12:14:55;2.70;;;1.30;;
29958;SDS011;16815;51.100;6.516;2023-03-14T12:17:24;3.00;;;1.43;;
29958;SDS011;16815;51.100;6.516;2023-03-14T12:20:00;2.13;;;1.33;;
29958;SDS011;16815;51.100;6.516;2023-03-14T12:22:29;3.37;;;1.47;;
29958;SDS011;16815;51.100;6.516;2023-03-14T12:25:12;2.80;;;1.43;;
29958;SDS011;16815;51.100;6.516;2023-03-14T12:27:47;4.47;;;1.93;;
29958;SDS011;16815;51.100;6.516;2023-03-14T12:30:17;4.47;;;1.67;;
29958;SDS011;16815;51.100;6.516;2023-03-14T12:33:10;3.73;;;1.80;;
29958;SDS011;16815;51.100;6.516;2023-03-14T12:35:49;2.53;;;1.60;;
29958;SDS011;16815;51.100;6.516;2023-03-14T12:43:27;6.17;;;1.93;;
29958;SDS011;16815;51.100;6.516;2023-03-14T12:48:34;4.40;;;1.70;;
29958;SDS011;16815;51.100;6.516;2023-03-14T12:51:03;3.93;;;1.63;;
29958;SDS011;16815;51.100;6.516;2023-03-14T12:53:35;9.03;;;2.20;;
29958;SDS011;16815;51.100;6.516;2023-03-14T12:56:25;5.60;;;2.37;;
29958;SDS011;16815;51.100;6.516;2023-03-14T13:01:27;7.03;;;2.50;;
29958;SDS011;16815;51.100;6.516;2023-03-14T13:03:56;6.73;;;1.93;;
29958;SDS011;16815;51.100;6.516;2023-03-14T13:12:10;7.43;;;2.37;;
29958;SDS011;16815;51.100;6.516;2023-03-14T13:14:40;5.27;;;2.27;;
29958;SDS011;16815;51.100;6.516;2023-03-14T13:17:09;5.43;;;2.00;;
29958;SDS011;16815;51.100;6.516;2023-03-14T13:19:36;4.37;;;1.77;;
29958;SDS011;16815;51.100;6.516;2023-03-14T13:22:03;8.67;;;2.27;;
29958;SDS011;16815;51.100;6.516;2023-03-14T13:24:32;6.70;;;1.97;;
29958;SDS011;16815;51.100;6.516;2023-03-14T13:26:58;11.27;;;2.40;;
29958;SDS011;16815;51.100;6.516;2023-03-14T13:29:25;5.90;;;2.50;;
29958;SDS011;16815;51.100;6.516;2023-03-14T13:31:53;8.63;;;2.43;;
29958;SDS011;16815;51.100;6.516;2023-03-14T13:34:21;6.37;;;2.40;;
29958;SDS011;16815;51.100;6.516;2023-03-14T13:36:51;9.53;;;2.40;;
29958;SDS011;16815;51.100;6.516;2023-03-14T13:39:18;11.00;;;2.97;;
29958;SDS011;16815;51.100;6.516;2023-03-14T13:41:46;9.20;;;2.80;;
29958;SDS011;16815;51.100;6.516;2023-03-14T13:44:15;9.67;;;2.77;;
29958;SDS011;16815;51.100;6.516;2023-03-14T13:46:42;10.83;;;2.80;;
29958;SDS011;16815;51.100;6.516;2023-03-14T13:49:12;12.33;;;3.23;;
29958;SDS011;16815;51.100;6.516;2023-03-14T13:51:42;11.73;;;2.87;;
29958;SDS011;16815;51.100;6.516;2023-03-14T13:54:13;12.53;;;3.03;;
29958;SDS011;16815;51.100;6.516;2023-03-14T13:56:39;15.57;;;3.20;;
29958;SDS011;16815;51.100;6.516;2023-03-14T13:59:20;16.50;;;3.17;;
29958;SDS011;16815;51.100;6.516;2023-03-14T14:01:46;10.57;;;2.57;;
29958;SDS011;16815;51.100;6.516;2023-03-14T14:04:16;12.57;;;3.17;;
29958;SDS011;16815;51.100;6.516;2023-03-14T14:06:52;14.07;;;3.10;;
29958;SDS011;16815;51.100;6.516;2023-03-14T14:09:20;9.07;;;2.70;;
29958;SDS011;16815;51.100;6.516;2023-03-14T14:11:51;15.80;;;3.50;;
29958;SDS011;16815;51.100;6.516;2023-03-14T14:14:19;13.43;;;3.57;;
29958;SDS011;16815;51.100;6.516;2023-03-14T14:16:46;12.33;;;3.13;;
29958;SDS011;16815;51.100;6.516;2023-03-14T14:19:13;14.33;;;3.43;;
29958;SDS011;16815;51.100;6.516;2023-03-14T14:21:39;17.77;;;3.73;;
29958;SDS011;16815;51.100;6.516;2023-03-14T14:24:05;11.43;;;2.80;;
29958;SDS011;16815;51.100;6.516;2023-03-14T14:26:33;16.07;;;4.10;;
29958;SDS011;16815;51.100;6.516;2023-03-14T14:29:00;11.13;;;3.67;;
29958;SDS011;16815;51.100;6.516;2023-03-14T14:31:26;13.80;;;4.00;;
29958;SDS011;16815;51.100;6.516;2023-03-14T14:33:56;11.67;;;4.03;;
29958;SDS011;16815;51.100;6.516;2023-03-14T14:36:24;18.17;;;4.10;;
29958;SDS011;16815;51.100;6.516;2023-03-14T14:39:00;12.43;;;3.00;;
29958;SDS011;16815;51.100;6.516;2023-03-14T14:41:30;10.43;;;3.30;;
29958;SDS011;16815;51.100;6.516;2023-03-14T14:43:57;17.53;;;3.23;;
29958;SDS011;16815;51.100;6.516;2023-03-14T14:46:23;10.07;;;3.00;;
29958;SDS011;16815;51.100;6.516;2023-03-14T14:48:54;10.87;;;3.07;;
29958;SDS011;16815;51.100;6.516;2023-03-14T14:51:25;11.13;;;3.20;;
29958;SDS011;16815;51.100;6.516;2023-03-14T14:54:02;14.97;;;3.53;;
29958;SDS011;16815;51.100;6.516;2023-03-14T14:56:28;12.53;;;3.00;;
29958;SDS011;16815;51.100;6.516;2023-03-14T14:58:58;11.20;;;3.53;;
29958;SDS011;16815;51.100;6.516;2023-03-14T15:01:30;9.00;;;3.57;;
29958;SDS011;16815;51.100;6.516;2023-03-14T15:03:57;11.10;;;3.10;;
29958;SDS011;16815;51.100;6.516;2023-03-14T15:06:24;10.17;;;2.93;;
29958;SDS011;16815;51.100;6.516;2023-03-14T15:08:52;14.93;;;2.87;;
29958;SDS011;16815;51.100;6.516;2023-03-14T15:11:19;7.60;;;2.40;;
29958;SDS011;16815;51.100;6.516;2023-03-14T15:13:47;12.10;;;2.70;;
29958;SDS011;16815;51.100;6.516;2023-03-14T15:16:14;10.23;;;2.73;;
29958;SDS011;16815;51.100;6.516;2023-03-14T15:18:40;7.77;;;2.50;;
29958;SDS011;16815;51.100;6.516;2023-03-14T15:21:08;7.17;;;2.90;;
29958;SDS011;16815;51.100;6.516;2023-03-14T15:23:34;8.40;;;2.30;;
29958;SDS011;16815;51.100;6.516;2023-03-14T15:26:00;6.87;;;2.27;;
29958;SDS011;16815;51.100;6.516;2023-03-14T15:28:28;6.07;;;2.20;;
29958;SDS011;16815;51.100;6.516;2023-03-14T15:30:55;7.27;;;2.00;;
29958;SDS011;16815;51.100;6.516;2023-03-14T15:33:21;7.73;;;2.40;;
29958;SDS011;16815;51.100;6.516;2023-03-14T15:35:47;7.53;;;2.40;;